Swanwick, Illinois
Current Conditions -  °F | °C
As of 1:55 PM on Sunday 23 Nov 2014 (Local Time) from KSAR Reporting Station
Light Rain Light Rain  
Wind Chill: 53°   Ceiling: 600
Heat Index: 53°   Visibility: 5mi
Dew Point: 52°   Wind: 12mph
Humidity: 97%   Direction: 120°ESE
Pressure: 29.43"   Gusts: NA
Location:  38.1705°N, 89.5556°W
Report Text: KSAR 231955Z AUTO 12010KT 5SM -RA OVC006 12/11 A2943 RMK AO2 P0002 T01180113
Loading
Personal Weather Stations






























Interactive Weather Map New forecast layout! Learn more

10-Day Weather Forecast

Advertisements
Track Severe Weather on mobile